sensor_id;sensor_type;location;lat;lon;timestamp;P1;durP1;ratioP1;P2;durP2;ratioP2
12484;SDS011;6307;46.804;11.580;2022-07-11T00:00:05;1.70;;;1.50;;
12484;SDS011;6307;46.804;11.580;2022-07-11T00:02:37;2.27;;;1.60;;
12484;SDS011;6307;46.804;11.580;2022-07-11T00:05:08;2.03;;;1.57;;
12484;SDS011;6307;46.804;11.580;2022-07-11T00:07:35;2.10;;;1.50;;
12484;SDS011;6307;46.804;11.580;2022-07-11T00:10:03;2.03;;;1.40;;
12484;SDS011;6307;46.804;11.580;2022-07-11T00:12:30;2.07;;;1.40;;
12484;SDS011;6307;46.804;11.580;2022-07-11T00:14:57;2.40;;;1.60;;
12484;SDS011;6307;46.804;11.580;2022-07-11T00:17:23;3.07;;;1.73;;
12484;SDS011;6307;46.804;11.580;2022-07-11T00:19:49;1.70;;;1.60;;
12484;SDS011;6307;46.804;11.580;2022-07-11T00:22:16;1.70;;;1.60;;
12484;SDS011;6307;46.804;11.580;2022-07-11T00:24:43;2.27;;;1.60;;
12484;SDS011;6307;46.804;11.580;2022-07-11T00:27:09;3.07;;;1.80;;
12484;SDS011;6307;46.804;11.580;2022-07-11T00:29:36;2.03;;;1.73;;
12484;SDS011;6307;46.804;11.580;2022-07-11T00:32:02;2.47;;;1.80;;
12484;SDS011;6307;46.804;11.580;2022-07-11T00:34:28;2.67;;;1.60;;
12484;SDS011;6307;46.804;11.580;2022-07-11T00:36:54;2.93;;;1.50;;
12484;SDS011;6307;46.804;11.580;2022-07-11T00:39:21;3.47;;;1.60;;
12484;SDS011;6307;46.804;11.580;2022-07-11T00:41:47;1.70;;;1.50;;
12484;SDS011;6307;46.804;11.580;2022-07-11T00:44:13;2.37;;;1.70;;
12484;SDS011;6307;46.804;11.580;2022-07-11T00:46:39;1.90;;;1.80;;
12484;SDS011;6307;46.804;11.580;2022-07-11T00:49:06;2.10;;;1.53;;
12484;SDS011;6307;46.804;11.580;2022-07-11T00:51:32;2.23;;;1.77;;
12484;SDS011;6307;46.804;11.580;2022-07-11T00:53:59;1.83;;;1.70;;
12484;SDS011;6307;46.804;11.580;2022-07-11T00:56:26;2.37;;;1.90;;
12484;SDS011;6307;46.804;11.580;2022-07-11T00:58:54;3.07;;;1.73;;
12484;SDS011;6307;46.804;11.580;2022-07-11T01:01:23;3.20;;;1.80;;
12484;SDS011;6307;46.804;11.580;2022-07-11T01:03:50;1.60;;;1.50;;
12484;SDS011;6307;46.804;11.580;2022-07-11T01:06:16;2.10;;;1.90;;
12484;SDS011;6307;46.804;11.580;2022-07-11T01:08:43;2.20;;;1.67;;
12484;SDS011;6307;46.804;11.580;2022-07-11T01:11:10;2.73;;;1.87;;
12484;SDS011;6307;46.804;11.580;2022-07-11T01:13:40;2.53;;;1.60;;
12484;SDS011;6307;46.804;11.580;2022-07-11T01:16:12;2.00;;;1.70;;
12484;SDS011;6307;46.804;11.580;2022-07-11T01:18:45;3.30;;;1.90;;
12484;SDS011;6307;46.804;11.580;2022-07-11T01:24:04;2.07;;;1.90;;
12484;SDS011;6307;46.804;11.580;2022-07-11T01:26:32;3.37;;;1.87;;
12484;SDS011;6307;46.804;11.580;2022-07-11T01:29:11;1.80;;;1.70;;
12484;SDS011;6307;46.804;11.580;2022-07-11T01:31:39;2.20;;;1.73;;
12484;SDS011;6307;46.804;11.580;2022-07-11T01:34:10;2.43;;;1.87;;
12484;SDS011;6307;46.804;11.580;2022-07-11T01:36:37;2.67;;;1.90;;
12484;SDS011;6307;46.804;11.580;2022-07-11T01:39:03;3.60;;;1.90;;
12484;SDS011;6307;46.804;11.580;2022-07-11T01:41:30;2.17;;;1.67;;
12484;SDS011;6307;46.804;11.580;2022-07-11T01:43:56;1.90;;;1.80;;
12484;SDS011;6307;46.804;11.580;2022-07-11T01:46:22;4.63;;;2.03;;
12484;SDS011;6307;46.804;11.580;2022-07-11T01:48:49;2.70;;;1.67;;
12484;SDS011;6307;46.804;11.580;2022-07-11T01:51:15;2.20;;;2.00;;
12484;SDS011;6307;46.804;11.580;2022-07-11T01:53:41;3.17;;;2.00;;
12484;SDS011;6307;46.804;11.580;2022-07-11T01:56:07;2.00;;;1.83;;
12484;SDS011;6307;46.804;11.580;2022-07-11T01:58:34;3.37;;;2.07;;
12484;SDS011;6307;46.804;11.580;2022-07-11T02:01:00;3.30;;;1.90;;
12484;SDS011;6307;46.804;11.580;2022-07-11T02:03:26;3.07;;;1.83;;
12484;SDS011;6307;46.804;11.580;2022-07-11T02:05:52;2.10;;;1.90;;
12484;SDS011;6307;46.804;11.580;2022-07-11T02:08:18;2.50;;;2.00;;
12484;SDS011;6307;46.804;11.580;2022-07-11T02:10:46;2.50;;;1.97;;
12484;SDS011;6307;46.804;11.580;2022-07-11T02:13:14;4.20;;;1.73;;
12484;SDS011;6307;46.804;11.580;2022-07-11T02:15:46;1.73;;;1.63;;
12484;SDS011;6307;46.804;11.580;2022-07-11T02:18:14;2.00;;;1.80;;
12484;SDS011;6307;46.804;11.580;2022-07-11T02:20:40;2.23;;;1.70;;
12484;SDS011;6307;46.804;11.580;2022-07-11T02:23:08;2.03;;;1.70;;
12484;SDS011;6307;46.804;11.580;2022-07-11T02:25:35;2.33;;;2.03;;
12484;SDS011;6307;46.804;11.580;2022-07-11T02:28:07;2.73;;;2.03;;
12484;SDS011;6307;46.804;11.580;2022-07-11T02:30:35;4.23;;;1.93;;
12484;SDS011;6307;46.804;11.580;2022-07-11T02:33:03;2.77;;;1.97;;
12484;SDS011;6307;46.804;11.580;2022-07-11T02:35:32;4.87;;;2.23;;
12484;SDS011;6307;46.804;11.580;2022-07-11T02:38:00;2.83;;;2.30;;
12484;SDS011;6307;46.804;11.580;2022-07-11T02:40:27;1.93;;;1.80;;
12484;SDS011;6307;46.804;11.580;2022-07-11T02:42:53;2.40;;;2.20;;
12484;SDS011;6307;46.804;11.580;2022-07-11T02:45:21;2.70;;;1.90;;
12484;SDS011;6307;46.804;11.580;2022-07-11T02:47:47;2.20;;;2.00;;
12484;SDS011;6307;46.804;11.580;2022-07-11T02:50:13;3.20;;;1.97;;
12484;SDS011;6307;46.804;11.580;2022-07-11T02:52:40;2.20;;;2.00;;
12484;SDS011;6307;46.804;11.580;2022-07-11T02:55:08;3.13;;;2.00;;
12484;SDS011;6307;46.804;11.580;2022-07-11T02:57:36;2.10;;;1.90;;
12484;SDS011;6307;46.804;11.580;2022-07-11T03:00:03;2.20;;;2.00;;
12484;SDS011;6307;46.804;11.580;2022-07-11T03:02:32;2.30;;;1.87;;
12484;SDS011;6307;46.804;11.580;2022-07-11T03:04:58;2.93;;;2.00;;
12484;SDS011;6307;46.804;11.580;2022-07-11T03:07:25;2.63;;;2.20;;
12484;SDS011;6307;46.804;11.580;2022-07-11T03:09:53;4.23;;;2.20;;
12484;SDS011;6307;46.804;11.580;2022-07-11T03:12:20;3.03;;;2.07;;
12484;SDS011;6307;46.804;11.580;2022-07-11T03:14:47;2.27;;;2.03;;
12484;SDS011;6307;46.804;11.580;2022-07-11T03:17:14;2.40;;;2.20;;
12484;SDS011;6307;46.804;11.580;2022-07-11T03:19:45;2.83;;;2.10;;
12484;SDS011;6307;46.804;11.580;2022-07-11T03:22:15;2.27;;;2.07;;
12484;SDS011;6307;46.804;11.580;2022-07-11T03:24:42;2.80;;;2.10;;
12484;SDS011;6307;46.804;11.580;2022-07-11T03:27:09;2.50;;;2.10;;
12484;SDS011;6307;46.804;11.580;2022-07-11T03:29:35;2.33;;;2.07;;
12484;SDS011;6307;46.804;11.580;2022-07-11T03:32:02;2.17;;;1.90;;
12484;SDS011;6307;46.804;11.580;2022-07-11T03:34:28;2.17;;;1.97;;
12484;SDS011;6307;46.804;11.580;2022-07-11T03:36:55;2.10;;;1.90;;
12484;SDS011;6307;46.804;11.580;2022-07-11T03:39:21;2.63;;;1.90;;
12484;SDS011;6307;46.804;11.580;2022-07-11T03:41:47;2.50;;;1.93;;
12484;SDS011;6307;46.804;11.580;2022-07-11T03:44:13;3.30;;;2.10;;
12484;SDS011;6307;46.804;11.580;2022-07-11T03:46:40;2.20;;;2.00;;
12484;SDS011;6307;46.804;11.580;2022-07-11T03:49:06;2.40;;;2.20;;
12484;SDS011;6307;46.804;11.580;2022-07-11T03:51:33;2.27;;;2.03;;
12484;SDS011;6307;46.804;11.580;2022-07-11T03:53:59;3.17;;;1.90;;
12484;SDS011;6307;46.804;11.580;2022-07-11T03:56:26;2.43;;;2.23;;
12484;SDS011;6307;46.804;11.580;2022-07-11T03:58:52;2.40;;;2.20;;
12484;SDS011;6307;46.804;11.580;2022-07-11T04:01:18;2.53;;;2.20;;
12484;SDS011;6307;46.804;11.580;2022-07-11T04:03:47;2.33;;;2.13;;
12484;SDS011;6307;46.804;11.580;2022-07-11T04:06:14;2.43;;;2.23;;
12484;SDS011;6307;46.804;11.580;2022-07-11T04:08:41;2.30;;;2.10;;
12484;SDS011;6307;46.804;11.580;2022-07-11T04:11:07;4.93;;;2.20;;
12484;SDS011;6307;46.804;11.580;2022-07-11T04:13:34;2.50;;;2.30;;
12484;SDS011;6307;46.804;11.580;2022-07-11T04:16:00;1.87;;;1.77;;
12484;SDS011;6307;46.804;11.580;2022-07-11T04:18:26;2.77;;;2.40;;
12484;SDS011;6307;46.804;11.580;2022-07-11T04:20:52;3.03;;;2.03;;
12484;SDS011;6307;46.804;11.580;2022-07-11T04:23:18;5.90;;;2.00;;
12484;SDS011;6307;46.804;11.580;2022-07-11T04:25:45;2.70;;;2.30;;
12484;SDS011;6307;46.804;11.580;2022-07-11T04:28:11;2.40;;;2.20;;
12484;SDS011;6307;46.804;11.580;2022-07-11T04:30:37;3.53;;;2.00;;
12484;SDS011;6307;46.804;11.580;2022-07-11T04:33:03;2.80;;;2.10;;
12484;SDS011;6307;46.804;11.580;2022-07-11T04:35:29;2.90;;;2.40;;
12484;SDS011;6307;46.804;11.580;2022-07-11T04:37:56;2.07;;;1.90;;
12484;SDS011;6307;46.804;11.580;2022-07-11T04:40:22;2.30;;;2.13;;
12484;SDS011;6307;46.804;11.580;2022-07-11T04:42:49;3.93;;;2.10;;
12484;SDS011;6307;46.804;11.580;2022-07-11T04:45:17;2.23;;;2.03;;
12484;SDS011;6307;46.804;11.580;2022-07-11T04:47:44;2.63;;;2.37;;
12484;SDS011;6307;46.804;11.580;2022-07-11T04:50:10;4.60;;;2.80;;
12484;SDS011;6307;46.804;11.580;2022-07-11T04:52:36;2.47;;;2.27;;
12484;SDS011;6307;46.804;11.580;2022-07-11T04:55:02;2.30;;;2.10;;
12484;SDS011;6307;46.804;11.580;2022-07-11T04:57:29;2.73;;;2.17;;
12484;SDS011;6307;46.804;11.580;2022-07-11T04:59:55;3.03;;;2.20;;
12484;SDS011;6307;46.804;11.580;2022-07-11T05:02:22;5.03;;;2.47;;
12484;SDS011;6307;46.804;11.580;2022-07-11T05:04:48;2.63;;;2.20;;
12484;SDS011;6307;46.804;11.580;2022-07-11T05:07:14;3.83;;;2.00;;
12484;SDS011;6307;46.804;11.580;2022-07-11T05:09:40;2.40;;;2.20;;
12484;SDS011;6307;46.804;11.580;2022-07-11T05:12:06;2.50;;;2.03;;
12484;SDS011;6307;46.804;11.580;2022-07-11T05:14:33;2.23;;;1.90;;
12484;SDS011;6307;46.804;11.580;2022-07-11T05:17:00;3.43;;;2.00;;
12484;SDS011;6307;46.804;11.580;2022-07-11T05:19:26;2.53;;;2.20;;
12484;SDS011;6307;46.804;11.580;2022-07-11T05:21:52;3.03;;;2.03;;
12484;SDS011;6307;46.804;11.580;2022-07-11T05:24:18;2.00;;;1.87;;
12484;SDS011;6307;46.804;11.580;2022-07-11T05:26:44;2.83;;;2.10;;
12484;SDS011;6307;46.804;11.580;2022-07-11T05:29:12;2.97;;;1.90;;
12484;SDS011;6307;46.804;11.580;2022-07-11T05:31:38;5.23;;;2.13;;
12484;SDS011;6307;46.804;11.580;2022-07-11T05:34:04;2.83;;;2.10;;
12484;SDS011;6307;46.804;11.580;2022-07-11T05:36:31;4.00;;;1.70;;
12484;SDS011;6307;46.804;11.580;2022-07-11T05:38:57;2.80;;;2.10;;
12484;SDS011;6307;46.804;11.580;2022-07-11T05:41:23;2.10;;;1.90;;
12484;SDS011;6307;46.804;11.580;2022-07-11T05:43:49;3.80;;;1.90;;
12484;SDS011;6307;46.804;11.580;2022-07-11T05:46:15;2.13;;;1.93;;
12484;SDS011;6307;46.804;11.580;2022-07-11T05:48:41;3.17;;;1.90;;
12484;SDS011;6307;46.804;11.580;2022-07-11T05:51:07;2.80;;;2.13;;
12484;SDS011;6307;46.804;11.580;2022-07-11T05:53:34;2.40;;;2.00;;
12484;SDS011;6307;46.804;11.580;2022-07-11T05:56:00;2.53;;;2.07;;
12484;SDS011;6307;46.804;11.580;2022-07-11T05:58:26;4.87;;;1.87;;
12484;SDS011;6307;46.804;11.580;2022-07-11T06:00:53;2.87;;;1.67;;
12484;SDS011;6307;46.804;11.580;2022-07-11T06:03:23;3.87;;;1.53;;
12484;SDS011;6307;46.804;11.580;2022-07-11T06:05:49;3.90;;;1.80;;
12484;SDS011;6307;46.804;11.580;2022-07-11T06:08:15;3.33;;;1.90;;
12484;SDS011;6307;46.804;11.580;2022-07-11T06:11:00;1.97;;;1.70;;
12484;SDS011;6307;46.804;11.580;2022-07-11T06:13:27;2.37;;;1.53;;
12484;SDS011;6307;46.804;11.580;2022-07-11T06:15:55;2.57;;;1.80;;
12484;SDS011;6307;46.804;11.580;2022-07-11T06:18:21;2.20;;;1.77;;
12484;SDS011;6307;46.804;11.580;2022-07-11T06:20:48;1.60;;;1.40;;
12484;SDS011;6307;46.804;11.580;2022-07-11T06:23:15;5.27;;;1.73;;
12484;SDS011;6307;46.804;11.580;2022-07-11T06:25:41;2.63;;;1.30;;
12484;SDS011;6307;46.804;11.580;2022-07-11T06:28:07;2.13;;;1.27;;
12484;SDS011;6307;46.804;11.580;2022-07-11T06:30:33;5.13;;;1.70;;
12484;SDS011;6307;46.804;11.580;2022-07-11T06:33:02;1.70;;;1.60;;
12484;SDS011;6307;46.804;11.580;2022-07-11T06:35:29;2.03;;;1.47;;
12484;SDS011;6307;46.804;11.580;2022-07-11T06:37:56;3.70;;;1.50;;
12484;SDS011;6307;46.804;11.580;2022-07-11T06:40:22;1.53;;;1.37;;
12484;SDS011;6307;46.804;11.580;2022-07-11T06:42:49;4.83;;;1.67;;
12484;SDS011;6307;46.804;11.580;2022-07-11T06:45:15;7.30;;;1.33;;
12484;SDS011;6307;46.804;11.580;2022-07-11T06:47:41;1.83;;;1.40;;
12484;SDS011;6307;46.804;11.580;2022-07-11T06:50:07;1.70;;;1.20;;
12484;SDS011;6307;46.804;11.580;2022-07-11T06:52:34;1.47;;;1.20;;
12484;SDS011;6307;46.804;11.580;2022-07-11T06:55:01;2.93;;;1.30;;
12484;SDS011;6307;46.804;11.580;2022-07-11T06:57:28;1.40;;;1.30;;
12484;SDS011;6307;46.804;11.580;2022-07-11T06:59:54;2.60;;;1.43;;
12484;SDS011;6307;46.804;11.580;2022-07-11T07:02:20;1.50;;;1.30;;
12484;SDS011;6307;46.804;11.580;2022-07-11T07:04:51;1.77;;;1.30;;
12484;SDS011;6307;46.804;11.580;2022-07-11T07:07:17;1.40;;;1.30;;
12484;SDS011;6307;46.804;11.580;2022-07-11T07:09:43;1.47;;;1.17;;
12484;SDS011;6307;46.804;11.580;2022-07-11T07:12:09;2.53;;;1.73;;
12484;SDS011;6307;46.804;11.580;2022-07-11T07:14:36;3.80;;;1.30;;
12484;SDS011;6307;46.804;11.580;2022-07-11T07:17:02;3.83;;;1.50;;
12484;SDS011;6307;46.804;11.580;2022-07-11T07:19:28;1.30;;;1.20;;
12484;SDS011;6307;46.804;11.580;2022-07-11T07:21:54;1.57;;;1.47;;
12484;SDS011;6307;46.804;11.580;2022-07-11T07:24:20;3.93;;;1.20;;
12484;SDS011;6307;46.804;11.580;2022-07-11T07:26:46;2.10;;;1.40;;
12484;SDS011;6307;46.804;11.580;2022-07-11T07:29:13;1.60;;;1.50;;
12484;SDS011;6307;46.804;11.580;2022-07-11T07:31:39;1.50;;;1.10;;
12484;SDS011;6307;46.804;11.580;2022-07-11T07:34:05;1.33;;;1.10;;
12484;SDS011;6307;46.804;11.580;2022-07-11T07:36:33;1.30;;;1.20;;
12484;SDS011;6307;46.804;11.580;2022-07-11T07:38:59;3.03;;;1.23;;
12484;SDS011;6307;46.804;11.580;2022-07-11T07:41:26;1.73;;;1.20;;
12484;SDS011;6307;46.804;11.580;2022-07-11T07:43:52;1.40;;;1.00;;
12484;SDS011;6307;46.804;11.580;2022-07-11T07:46:18;1.83;;;1.10;;
12484;SDS011;6307;46.804;11.580;2022-07-11T07:48:45;1.10;;;1.00;;
12484;SDS011;6307;46.804;11.580;2022-07-11T07:51:11;2.80;;;1.10;;
12484;SDS011;6307;46.804;11.580;2022-07-11T07:53:37;1.07;;;1.07;;
12484;SDS011;6307;46.804;11.580;2022-07-11T07:56:04;1.10;;;1.00;;
12484;SDS011;6307;46.804;11.580;2022-07-11T07:58:31;1.77;;;1.03;;
12484;SDS011;6307;46.804;11.580;2022-07-11T08:00:58;1.83;;;1.30;;
12484;SDS011;6307;46.804;11.580;2022-07-11T08:03:42;3.00;;;1.20;;
12484;SDS011;6307;46.804;11.580;2022-07-11T08:06:09;2.07;;;1.30;;
12484;SDS011;6307;46.804;11.580;2022-07-11T08:08:35;1.33;;;1.03;;
12484;SDS011;6307;46.804;11.580;2022-07-11T08:11:02;2.00;;;1.20;;
12484;SDS011;6307;46.804;11.580;2022-07-11T08:13:28;1.20;;;1.10;;
12484;SDS011;6307;46.804;11.580;2022-07-11T08:15:55;1.40;;;1.00;;
12484;SDS011;6307;46.804;11.580;2022-07-11T08:18:22;3.90;;;1.30;;
12484;SDS011;6307;46.804;11.580;2022-07-11T08:20:48;1.77;;;1.17;;
12484;SDS011;6307;46.804;11.580;2022-07-11T08:23:14;4.20;;;1.00;;
12484;SDS011;6307;46.804;11.580;2022-07-11T08:25:41;1.53;;;1.10;;
12484;SDS011;6307;46.804;11.580;2022-07-11T08:28:07;2.23;;;0.93;;
12484;SDS011;6307;46.804;11.580;2022-07-11T08:30:33;1.13;;;1.03;;
12484;SDS011;6307;46.804;11.580;2022-07-11T08:32:59;1.03;;;0.93;;
12484;SDS011;6307;46.804;11.580;2022-07-11T08:35:25;1.20;;;1.10;;
12484;SDS011;6307;46.804;11.580;2022-07-11T08:37:52;1.40;;;1.20;;
12484;SDS011;6307;46.804;11.580;2022-07-11T08:40:18;2.03;;;0.90;;
12484;SDS011;6307;46.804;11.580;2022-07-11T08:42:44;1.10;;;0.97;;
12484;SDS011;6307;46.804;11.580;2022-07-11T08:45:10;1.10;;;1.00;;
12484;SDS011;6307;46.804;11.580;2022-07-11T08:47:41;1.27;;;0.90;;
12484;SDS011;6307;46.804;11.580;2022-07-11T08:50:09;2.07;;;1.00;;
12484;SDS011;6307;46.804;11.580;2022-07-11T08:52:37;1.77;;;1.10;;
12484;SDS011;6307;46.804;11.580;2022-07-11T08:55:05;1.33;;;1.00;;
12484;SDS011;6307;46.804;11.580;2022-07-11T08:57:35;0.90;;;0.80;;
12484;SDS011;6307;46.804;11.580;2022-07-11T09:00:04;0.93;;;0.87;;
12484;SDS011;6307;46.804;11.580;2022-07-11T09:02:34;0.70;;;0.70;;
12484;SDS011;6307;46.804;11.580;2022-07-11T09:05:06;1.17;;;0.90;;
12484;SDS011;6307;46.804;11.580;2022-07-11T09:07:33;3.13;;;1.00;;
12484;SDS011;6307;46.804;11.580;2022-07-11T09:10:17;1.27;;;0.90;;
12484;SDS011;6307;46.804;11.580;2022-07-11T09:15:54;0.77;;;0.77;;
12484;SDS011;6307;46.804;11.580;2022-07-11T09:18:30;2.57;;;0.60;;
12484;SDS011;6307;46.804;11.580;2022-07-11T09:21:04;12.50;;;1.00;;
12484;SDS011;6307;46.804;11.580;2022-07-11T09:23:49;1.83;;;0.70;;
12484;SDS011;6307;46.804;11.580;2022-07-11T09:26:38;0.50;;;0.50;;
12484;SDS011;6307;46.804;11.580;2022-07-11T09:29:29;1.00;;;0.70;;
12484;SDS011;6307;46.804;11.580;2022-07-11T09:31:53;1.20;;;0.70;;
12484;SDS011;6307;46.804;11.580;2022-07-11T09:34:20;1.23;;;0.60;;
12484;SDS011;6307;46.804;11.580;2022-07-11T09:36:52;0.70;;;0.67;;
12484;SDS011;6307;46.804;11.580;2022-07-11T09:39:23;0.60;;;0.60;;
12484;SDS011;6307;46.804;11.580;2022-07-11T09:41:52;17.07;;;1.10;;
12484;SDS011;6307;46.804;11.580;2022-07-11T09:44:29;0.47;;;0.43;;
12484;SDS011;6307;46.804;11.580;2022-07-11T09:46:58;0.53;;;0.53;;
12484;SDS011;6307;46.804;11.580;2022-07-11T09:49:29;0.60;;;0.60;;
12484;SDS011;6307;46.804;11.580;2022-07-11T09:52:11;0.60;;;0.60;;
12484;SDS011;6307;46.804;11.580;2022-07-11T09:55:02;0.73;;;0.70;;
12484;SDS011;6307;46.804;11.580;2022-07-11T09:57:37;0.73;;;0.60;;
12484;SDS011;6307;46.804;11.580;2022-07-11T10:00:06;0.70;;;0.70;;
12484;SDS011;6307;46.804;11.580;2022-07-11T10:02:35;1.40;;;0.87;;
12484;SDS011;6307;46.804;11.580;2022-07-11T10:05:02;0.60;;;0.60;;
12484;SDS011;6307;46.804;11.580;2022-07-11T10:07:29;1.67;;;0.80;;
12484;SDS011;6307;46.804;11.580;2022-07-11T10:09:57;0.77;;;0.73;;
12484;SDS011;6307;46.804;11.580;2022-07-11T10:12:25;1.07;;;0.80;;
12484;SDS011;6307;46.804;11.580;2022-07-11T10:14:54;0.70;;;0.60;;
12484;SDS011;6307;46.804;11.580;2022-07-11T10:26:01;0.57;;;0.50;;
12484;SDS011;6307;46.804;11.580;2022-07-11T10:28:41;0.77;;;0.70;;
12484;SDS011;6307;46.804;11.580;2022-07-11T10:31:22;0.53;;;0.53;;
12484;SDS011;6307;46.804;11.580;2022-07-11T10:36:40;1.17;;;0.50;;
12484;SDS011;6307;46.804;11.580;2022-07-11T10:39:19;0.70;;;0.60;;
12484;SDS011;6307;46.804;11.580;2022-07-11T10:41:51;0.60;;;0.60;;
12484;SDS011;6307;46.804;11.580;2022-07-11T10:44:19;0.53;;;0.47;;
12484;SDS011;6307;46.804;11.580;2022-07-11T10:46:46;0.50;;;0.50;;
12484;SDS011;6307;46.804;11.580;2022-07-11T10:54:58;0.40;;;0.40;;
12484;SDS011;6307;46.804;11.580;2022-07-11T10:57:48;0.40;;;0.40;;
12484;SDS011;6307;46.804;11.580;2022-07-11T11:00:22;2.77;;;0.80;;
12484;SDS011;6307;46.804;11.580;2022-07-11T11:05:44;0.60;;;0.60;;
12484;SDS011;6307;46.804;11.580;2022-07-11T11:11:04;6.77;;;0.63;;
12484;SDS011;6307;46.804;11.580;2022-07-11T11:13:33;0.57;;;0.50;;
12484;SDS011;6307;46.804;11.580;2022-07-11T11:16:01;1.70;;;0.50;;
12484;SDS011;6307;46.804;11.580;2022-07-11T11:18:44;0.33;;;0.27;;
12484;SDS011;6307;46.804;11.580;2022-07-11T11:26:25;0.43;;;0.43;;
12484;SDS011;6307;46.804;11.580;2022-07-11T11:29:08;0.70;;;0.50;;
12484;SDS011;6307;46.804;11.580;2022-07-11T11:31:34;1.00;;;0.67;;
12484;SDS011;6307;46.804;11.580;2022-07-11T11:34:01;0.63;;;0.57;;
12484;SDS011;6307;46.804;11.580;2022-07-11T11:36:29;1.50;;;0.43;;
12484;SDS011;6307;46.804;11.580;2022-07-11T11:38:57;1.00;;;0.60;;
12484;SDS011;6307;46.804;11.580;2022-07-11T11:41:24;3.63;;;0.70;;
12484;SDS011;6307;46.804;11.580;2022-07-11T11:43:56;1.87;;;0.53;;
12484;SDS011;6307;46.804;11.580;2022-07-11T11:46:26;2.93;;;0.60;;
12484;SDS011;6307;46.804;11.580;2022-07-11T11:48:57;0.87;;;0.53;;
12484;SDS011;6307;46.804;11.580;2022-07-11T11:51:28;0.43;;;0.40;;
12484;SDS011;6307;46.804;11.580;2022-07-11T11:53:57;1.63;;;0.40;;
12484;SDS011;6307;46.804;11.580;2022-07-11T11:56:27;1.70;;;0.50;;
12484;SDS011;6307;46.804;11.580;2022-07-11T12:01:33;3.50;;;0.67;;
12484;SDS011;6307;46.804;11.580;2022-07-11T12:04:07;1.27;;;0.47;;
12484;SDS011;6307;46.804;11.580;2022-07-11T12:09:06;2.30;;;0.57;;
12484;SDS011;6307;46.804;11.580;2022-07-11T12:11:46;0.40;;;0.40;;
12484;SDS011;6307;46.804;11.580;2022-07-11T12:14:33;0.67;;;0.40;;
12484;SDS011;6307;46.804;11.580;2022-07-11T12:16:59;0.40;;;0.40;;
12484;SDS011;6307;46.804;11.580;2022-07-11T12:19:31;0.90;;;0.47;;
12484;SDS011;6307;46.804;11.580;2022-07-11T12:22:03;0.50;;;0.50;;
12484;SDS011;6307;46.804;11.580;2022-07-11T12:24:30;0.80;;;0.60;;
12484;SDS011;6307;46.804;11.580;2022-07-11T12:26:57;0.40;;;0.40;;
12484;SDS011;6307;46.804;11.580;2022-07-11T12:29:24;0.57;;;0.30;;
12484;SDS011;6307;46.804;11.580;2022-07-11T12:37:02;0.50;;;0.50;;
12484;SDS011;6307;46.804;11.580;2022-07-11T12:39:31;0.87;;;0.70;;
12484;SDS011;6307;46.804;11.580;2022-07-11T12:41:59;0.60;;;0.50;;
12484;SDS011;6307;46.804;11.580;2022-07-11T12:44:53;1.10;;;0.50;;
12484;SDS011;6307;46.804;11.580;2022-07-11T12:47:39;0.73;;;0.40;;
12484;SDS011;6307;46.804;11.580;2022-07-11T12:52:47;0.93;;;0.50;;
12484;SDS011;6307;46.804;11.580;2022-07-11T12:55:26;1.80;;;0.90;;
12484;SDS011;6307;46.804;11.580;2022-07-11T12:58:08;0.80;;;0.53;;
12484;SDS011;6307;46.804;11.580;2022-07-11T13:00:43;4.13;;;0.50;;
12484;SDS011;6307;46.804;11.580;2022-07-11T13:03:29;1.63;;;0.50;;
12484;SDS011;6307;46.804;11.580;2022-07-11T13:06:01;0.67;;;0.60;;
12484;SDS011;6307;46.804;11.580;2022-07-11T13:08:30;3.00;;;0.60;;
12484;SDS011;6307;46.804;11.580;2022-07-11T13:13:45;1.07;;;0.57;;
12484;SDS011;6307;46.804;11.580;2022-07-11T13:16:14;0.77;;;0.53;;
12484;SDS011;6307;46.804;11.580;2022-07-11T13:18:42;0.53;;;0.50;;
12484;SDS011;6307;46.804;11.580;2022-07-11T13:21:09;0.93;;;0.50;;
12484;SDS011;6307;46.804;11.580;2022-07-11T13:23:35;1.87;;;0.70;;
12484;SDS011;6307;46.804;11.580;2022-07-11T13:26:03;1.17;;;0.50;;
12484;SDS011;6307;46.804;11.580;2022-07-11T13:28:33;1.13;;;0.60;;
12484;SDS011;6307;46.804;11.580;2022-07-11T13:31:00;2.00;;;0.60;;
12484;SDS011;6307;46.804;11.580;2022-07-11T13:33:29;0.50;;;0.50;;
12484;SDS011;6307;46.804;11.580;2022-07-11T13:35:56;1.40;;;0.57;;
12484;SDS011;6307;46.804;11.580;2022-07-11T13:38:23;3.23;;;0.60;;
12484;SDS011;6307;46.804;11.580;2022-07-11T13:40:49;0.70;;;0.70;;
12484;SDS011;6307;46.804;11.580;2022-07-11T13:43:16;0.60;;;0.60;;
12484;SDS011;6307;46.804;11.580;2022-07-11T13:45:42;0.83;;;0.43;;
12484;SDS011;6307;46.804;11.580;2022-07-11T13:48:09;1.10;;;0.60;;
12484;SDS011;6307;46.804;11.580;2022-07-11T13:50:36;0.40;;;0.40;;
12484;SDS011;6307;46.804;11.580;2022-07-11T13:53:02;0.60;;;0.53;;
12484;SDS011;6307;46.804;11.580;2022-07-11T13:55:29;0.50;;;0.50;;
12484;SDS011;6307;46.804;11.580;2022-07-11T13:57:56;1.47;;;0.77;;
12484;SDS011;6307;46.804;11.580;2022-07-11T14:00:32;3.19;;;0.50;;
12484;SDS011;6307;46.804;11.580;2022-07-11T14:02:58;0.50;;;0.50;;
12484;SDS011;6307;46.804;11.580;2022-07-11T14:05:25;0.60;;;0.50;;
12484;SDS011;6307;46.804;11.580;2022-07-11T14:07:52;1.47;;;0.60;;
12484;SDS011;6307;46.804;11.580;2022-07-11T14:10:18;1.10;;;0.70;;
12484;SDS011;6307;46.804;11.580;2022-07-11T14:12:44;2.07;;;0.60;;
12484;SDS011;6307;46.804;11.580;2022-07-11T14:15:11;0.70;;;0.60;;
12484;SDS011;6307;46.804;11.580;2022-07-11T14:17:37;0.83;;;0.60;;
12484;SDS011;6307;46.804;11.580;2022-07-11T14:20:04;0.67;;;0.63;;
12484;SDS011;6307;46.804;11.580;2022-07-11T14:22:32;0.93;;;0.47;;
12484;SDS011;6307;46.804;11.580;2022-07-11T14:24:58;0.50;;;0.50;;
12484;SDS011;6307;46.804;11.580;2022-07-11T14:27:25;1.60;;;0.60;;
12484;SDS011;6307;46.804;11.580;2022-07-11T14:29:51;0.83;;;0.70;;
12484;SDS011;6307;46.804;11.580;2022-07-11T14:32:18;0.73;;;0.50;;
12484;SDS011;6307;46.804;11.580;2022-07-11T14:34:45;0.50;;;0.50;;
12484;SDS011;6307;46.804;11.580;2022-07-11T14:37:11;4.63;;;0.60;;
12484;SDS011;6307;46.804;11.580;2022-07-11T14:39:37;2.27;;;0.83;;
12484;SDS011;6307;46.804;11.580;2022-07-11T14:42:04;1.83;;;0.60;;
12484;SDS011;6307;46.804;11.580;2022-07-11T14:44:30;1.03;;;0.50;;
12484;SDS011;6307;46.804;11.580;2022-07-11T14:46:56;0.67;;;0.60;;
12484;SDS011;6307;46.804;11.580;2022-07-11T14:49:22;2.20;;;0.60;;
12484;SDS011;6307;46.804;11.580;2022-07-11T14:51:48;1.20;;;0.60;;
12484;SDS011;6307;46.804;11.580;2022-07-11T14:54:15;0.70;;;0.60;;
12484;SDS011;6307;46.804;11.580;2022-07-11T14:56:42;0.60;;;0.60;;
12484;SDS011;6307;46.804;11.580;2022-07-11T14:59:08;2.37;;;0.93;;
12484;SDS011;6307;46.804;11.580;2022-07-11T15:01:34;2.57;;;0.80;;
12484;SDS011;6307;46.804;11.580;2022-07-11T15:04:00;0.83;;;0.57;;
12484;SDS011;6307;46.804;11.580;2022-07-11T15:06:29;7.83;;;0.60;;
12484;SDS011;6307;46.804;11.580;2022-07-11T15:09:14;1.70;;;0.40;;
12484;SDS011;6307;46.804;11.580;2022-07-11T15:11:58;0.70;;;0.70;;
12484;SDS011;6307;46.804;11.580;2022-07-11T15:14:43;1.37;;;0.60;;
12484;SDS011;6307;46.804;11.580;2022-07-11T15:17:09;0.53;;;0.53;;
12484;SDS011;6307;46.804;11.580;2022-07-11T15:19:35;1.73;;;0.70;;
12484;SDS011;6307;46.804;11.580;2022-07-11T15:22:01;0.63;;;0.57;;
12484;SDS011;6307;46.804;11.580;2022-07-11T15:24:28;0.80;;;0.60;;
12484;SDS011;6307;46.804;11.580;2022-07-11T15:26:54;1.60;;;0.60;;
12484;SDS011;6307;46.804;11.580;2022-07-11T15:29:23;0.40;;;0.40;;
12484;SDS011;6307;46.804;11.580;2022-07-11T15:31:50;2.33;;;0.60;;
12484;SDS011;6307;46.804;11.580;2022-07-11T15:34:16;0.60;;;0.50;;
12484;SDS011;6307;46.804;11.580;2022-07-11T15:36:44;1.57;;;0.80;;
12484;SDS011;6307;46.804;11.580;2022-07-11T15:39:14;0.40;;;0.40;;
12484;SDS011;6307;46.804;11.580;2022-07-11T15:41:41;0.60;;;0.60;;
12484;SDS011;6307;46.804;11.580;2022-07-11T15:44:08;1.23;;;0.70;;